Time;durP1;ratioP1;P1;durP2;ratioP2;P2;SDS_P1;SDS_P2;PMS_P1;PMS_P2;Temp;Humidity;BMP_temperature;BMP_pressure;BME280_temperature;BME280_humidity;BME280_pressure;Samples;Min_cycle;Max_cycle;Signal;HPM_P1;HPM_P2
2024/02/10 00:01:36;;;;;;;0.90;0.50;;;11.80;59.60;;;;;;5073190;28;20055;-72
2024/02/10 00:04:05;;;;;;;0.32;0.28;;;11.90;59.60;;;;;;5090596;28;20165;-73
2024/02/10 00:06:31;;;;;;;1.00;0.73;;;11.90;59.50;;;;;;5073985;28;20077;-73
2024/02/10 00:08:57;;;;;;;0.45;0.30;;;11.90;59.50;;;;;;5090364;28;20039;-73
2024/02/10 00:11:23;;;;;;;1.45;1.00;;;11.90;59.60;;;;;;5089992;28;20040;-73
2024/02/10 00:13:49;;;;;;;0.40;0.30;;;11.90;59.50;;;;;;5090469;28;20069;-73
2024/02/10 00:16:15;;;;;;;1.20;0.85;;;11.90;59.60;;;;;;5091801;28;20039;-72
2024/02/10 00:18:41;;;;;;;0.10;0.10;;;12.00;59.50;;;;;;5091498;28;20043;-73
2024/02/10 00:21:08;;;;;;;1.13;0.55;;;12.00;59.80;;;;;;5089773;28;20085;-72
2024/02/10 00:23:34;;;;;;;1.80;0.30;;;11.90;60.30;;;;;;5090900;28;20163;-72
2024/02/10 00:26:03;;;;;;;0.60;0.52;;;11.90;60.40;;;;;;5090350;28;20041;-73
2024/02/10 00:28:30;;;;;;;0.80;0.28;;;11.90;60.40;;;;;;5092104;28;20458;-73
2024/02/10 00:30:59;;;;;;;1.33;0.88;;;11.90;59.80;;;;;;5090937;28;20035;-73
2024/02/10 00:33:25;;;;;;;1.38;0.77;;;11.90;60.50;;;;;;5091814;28;20043;-73
2024/02/10 00:35:51;;;;;;;1.35;0.75;;;11.90;59.80;;;;;;5061615;28;20025;-73
2024/02/10 00:38:20;;;;;;;0.32;0.30;;;12.00;60.40;;;;;;5063777;28;20036;-73
2024/02/10 00:40:48;;;;;;;0.10;0.10;;;12.00;60.30;;;;;;5090942;28;20040;-73
2024/02/10 00:43:14;;;;;;;1.50;0.63;;;12.00;60.50;;;;;;5090266;28;20028;-73
2024/02/10 00:45:42;;;;;;;0.60;0.60;;;12.00;60.80;;;;;;5091081;28;20051;-72
2024/02/10 00:48:08;;;;;;;1.35;1.25;;;12.00;60.80;;;;;;5091008;28;20051;-73
2024/02/10 00:50:34;;;;;;;0.55;0.50;;;11.90;61.00;;;;;;5090790;28;20032;-72
2024/02/10 00:53:02;;;;;;;0.15;0.15;;;12.00;61.00;;;;;;5091611;28;20109;-72
2024/02/10 00:55:30;;;;;;;0.85;0.57;;;11.90;61.00;;;;;;5073368;28;20093;-73
2024/02/10 01:00:42;;;;;;;1.65;0.52;;;11.80;61.40;;;;;;5089697;28;20047;-73
2024/02/10 01:05:52;;;;;;;2.45;0.75;;;11.80;61.70;;;;;;5091107;28;20113;-73
2024/02/10 01:08:18;;;;;;;1.05;1.00;;;11.80;61.50;;;;;;5091320;28;20048;-72
2024/02/10 01:10:44;;;;;;;1.05;0.47;;;11.80;61.40;;;;;;5090797;28;20036;-73
2024/02/10 01:13:11;;;;;;;0.30;0.28;;;11.80;61.00;;;;;;5089615;28;20043;-73
2024/02/10 01:15:36;;;;;;;;;;;11.90;61.00;;;;;;5090284;28;20029;-72
2024/02/10 01:18:04;;;;;;;0.88;0.55;;;11.90;60.90;;;;;;5091054;28;19977;-73
2024/02/10 01:20:30;;;;;;;1.30;0.50;;;11.90;61.10;;;;;;5090438;28;20040;-72
2024/02/10 01:22:57;;;;;;;0.38;0.25;;;11.90;61.20;;;;;;5084859;28;20400;-73
2024/02/10 01:28:10;;;;;;;2.17;1.55;;;11.90;60.90;;;;;;5071905;28;20262;-73
2024/02/10 01:30:36;;;;;;;0.20;0.20;;;11.90;62.40;;;;;;5090399;28;20032;-72
2024/02/10 01:33:02;;;;;;;3.88;0.43;;;11.90;61.60;;;;;;5091121;28;20042;-73
2024/02/10 01:35:28;;;;;;;0.10;0.10;;;11.80;61.40;;;;;;5074819;28;20056;-72
2024/02/10 01:37:55;;;;;;;0.20;0.10;;;11.90;61.70;;;;;;5093686;28;20047;-73
2024/02/10 01:40:21;;;;;;;0.10;0.10;;;11.80;61.40;;;;;;5087436;28;20381;-72
2024/02/10 01:42:47;;;;;;;1.08;0.35;;;11.80;62.30;;;;;;5073237;28;20439;-73
2024/02/10 01:45:14;;;;;;;0.85;0.60;;;11.90;63.20;;;;;;5075314;28;20033;-73
2024/02/10 01:48:01;;;;;;;0.20;0.20;;;11.90;63.40;;;;;;5056491;28;20526;-72
2024/02/10 01:50:27;;;;;;;;;;;11.90;62.90;;;;;;5072995;28;20044;-72
2024/02/10 01:52:53;;;;;;;0.22;0.22;;;11.90;62.90;;;;;;5074099;28;19920;-73
2024/02/10 01:55:20;;;;;;;0.52;0.28;;;11.80;63.20;;;;;;5073999;28;20565;-73
2024/02/10 01:57:51;;;;;;;;;;;11.80;63.80;;;;;;5073125;28;20119;-73
2024/02/10 02:00:17;;;;;;;0.40;0.40;;;11.80;64.20;;;;;;5073593;28;20412;-73
2024/02/10 02:02:44;;;;;;;4.68;1.10;;;11.80;64.80;;;;;;5055848;28;20508;-73
2024/02/10 02:05:10;;;;;;;0.20;0.20;;;11.80;65.10;;;;;;5073990;28;20056;-72
2024/02/10 02:07:38;;;;;;;;;;;11.70;65.50;;;;;;5074574;28;20045;-73
2024/02/10 02:10:08;;;;;;;0.20;0.20;;;11.60;65.60;;;;;;5073336;28;19916;-73
2024/02/10 02:12:47;;;;;;;0.40;0.40;;;11.60;65.70;;;;;;5072460;28;20081;-72
2024/02/10 02:15:32;;;;;;;0.45;0.38;;;11.60;66.20;;;;;;5072639;28;20036;-72
2024/02/10 02:17:59;;;;;;;0.55;0.47;;;11.60;66.00;;;;;;5074039;28;20037;-73
2024/02/10 02:20:28;;;;;;;0.40;0.40;;;11.70;66.00;;;;;;5073298;28;20041;-73
2024/02/10 02:22:54;;;;;;;0.52;0.40;;;11.60;66.00;;;;;;5073997;28;20025;-73
2024/02/10 02:25:22;;;;;;;0.70;0.55;;;11.60;66.20;;;;;;5073203;28;20032;-73
2024/02/10 02:27:48;;;;;;;0.13;0.13;;;11.60;66.40;;;;;;5073793;28;20485;-73
2024/02/10 02:30:16;;;;;;;1.17;0.90;;;11.60;66.00;;;;;;5071665;28;20033;-72
2024/02/10 02:32:42;;;;;;;0.45;0.20;;;11.50;66.90;;;;;;5073602;28;20031;-73
2024/02/10 02:35:09;;;;;;;0.32;0.30;;;11.50;67.00;;;;;;5089090;28;20040;-72
2024/02/10 02:37:55;;;;;;;0.32;0.20;;;11.50;67.00;;;;;;5071922;28;20122;-73
2024/02/10 02:40:25;;;;;;;0.17;0.17;;;11.50;67.20;;;;;;5072690;28;20028;-73
2024/02/10 02:42:52;;;;;;;0.22;0.22;;;11.50;66.20;;;;;;5072198;28;20090;-73
2024/02/10 02:45:18;;;;;;;0.70;0.25;;;11.50;66.90;;;;;;5072913;28;20378;-73
2024/02/10 02:47:44;;;;;;;0.52;0.30;;;11.50;66.50;;;;;;5073453;28;20037;-72
2024/02/10 02:50:14;;;;;;;0.68;0.52;;;11.50;66.30;;;;;;5071642;28;20503;-73
2024/02/10 02:52:41;;;;;;;0.10;0.10;;;11.50;66.20;;;;;;5073338;28;20564;-73
2024/02/10 02:55:08;;;;;;;0.20;0.20;;;11.50;66.40;;;;;;5071929;28;20036;-73
2024/02/10 02:57:35;;;;;;;1.27;0.82;;;11.40;66.50;;;;;;5054766;28;20098;-73
2024/02/10 03:00:01;;;;;;;1.95;0.98;;;11.40;66.40;;;;;;5072974;28;20044;-73
2024/02/10 03:02:30;;;;;;;2.22;2.13;;;11.40;66.50;;;;;;5072008;28;20405;-72
2024/02/10 03:04:56;;;;;;;1.17;0.30;;;11.30;66.20;;;;;;5072789;28;20033;-73
2024/02/10 03:07:22;;;;;;;;;;;11.30;66.90;;;;;;5072010;28;20059;-73
2024/02/10 03:09:48;;;;;;;0.52;0.40;;;11.20;66.20;;;;;;5072832;28;19935;-72
2024/02/10 03:12:15;;;;;;;0.52;0.40;;;11.20;67.00;;;;;;5072497;28;20033;-73
2024/02/10 03:14:41;;;;;;;0.75;0.68;;;11.10;67.10;;;;;;5071290;28;20027;-73
2024/02/10 03:17:12;;;;;;;1.55;1.23;;;11.10;67.90;;;;;;5072398;28;20025;-73
2024/02/10 03:19:40;;;;;;;0.20;0.15;;;11.00;67.40;;;;;;5071518;28;20043;-73
2024/02/10 03:22:07;;;;;;;0.35;0.20;;;11.00;67.70;;;;;;5070705;28;20132;-73
2024/02/10 03:24:33;;;;;;;;;;;11.00;66.90;;;;;;5073102;28;20431;-73
2024/02/10 03:27:03;;;;;;;0.27;0.27;;;11.00;67.00;;;;;;5071077;28;19926;-72
2024/02/10 03:29:29;;;;;;;0.30;0.20;;;10.90;66.70;;;;;;5054942;28;20055;-72
2024/02/10 03:31:55;;;;;;;0.20;0.20;;;11.00;66.80;;;;;;5071664;28;20090;-72
2024/02/10 03:34:21;;;;;;;;;;;10.90;66.60;;;;;;5071713;28;20033;-72
2024/02/10 03:36:48;;;;;;;2.38;1.13;;;10.90;65.90;;;;;;5070923;28;19928;-72
2024/02/10 03:39:15;;;;;;;2.70;1.00;;;10.80;66.40;;;;;;5071014;28;20504;-73
2024/02/10 03:41:41;;;;;;;2.72;1.05;;;10.70;66.40;;;;;;5070205;28;20056;-73
2024/02/10 03:44:07;;;;;;;1.75;0.88;;;10.70;66.90;;;;;;5071064;28;20477;-73
2024/02/10 03:46:33;;;;;;;1.40;0.77;;;10.60;67.20;;;;;;5070795;28;20435;-73
2024/02/10 03:48:59;;;;;;;2.25;0.77;;;10.50;67.70;;;;;;5070407;28;20029;-73
2024/02/10 03:51:27;;;;;;;1.00;0.80;;;10.40;67.50;;;;;;5070163;28;20498;-72
2024/02/10 03:53:53;;;;;;;2.45;1.00;;;10.30;68.40;;;;;;5071791;28;20442;-72
2024/02/10 03:56:21;;;;;;;4.53;2.35;;;10.30;68.70;;;;;;5072361;28;20048;-73
2024/02/10 03:58:47;;;;;;;0.82;0.60;;;10.20;68.80;;;;;;5070819;28;20055;-72
2024/02/10 04:01:14;;;;;;;0.70;0.60;;;10.20;69.00;;;;;;5071489;28;20037;-72
2024/02/10 04:03:42;;;;;;;1.23;0.85;;;10.10;68.70;;;;;;5070545;28;20060;-73
2024/02/10 04:06:09;;;;;;;0.45;0.32;;;10.10;68.60;;;;;;5070527;28;20074;-72
2024/02/10 04:08:36;;;;;;;0.63;0.63;;;10.00;68.10;;;;;;5053652;28;20058;-73
2024/02/10 04:11:06;;;;;;;3.63;0.70;;;10.00;69.80;;;;;;5070848;28;20041;-72
2024/02/10 04:13:52;;;;;;;0.57;0.43;;;9.90;69.40;;;;;;5071902;28;20047;-73
2024/02/10 04:16:18;;;;;;;0.57;0.50;;;10.00;69.80;;;;;;5070372;28;20020;-72
2024/02/10 04:18:44;;;;;;;0.40;0.30;;;9.90;69.50;;;;;;5070092;28;20051;-73
2024/02/10 04:21:12;;;;;;;2.88;2.03;;;9.90;69.50;;;;;;5069750;28;20064;-73
2024/02/10 04:23:39;;;;;;;2.00;1.25;;;9.80;69.40;;;;;;5071221;28;20040;-73
2024/02/10 04:26:05;;;;;;;1.70;1.58;;;9.80;69.60;;;;;;5070186;28;20027;-73
2024/02/10 04:28:33;;;;;;;1.58;0.30;;;9.60;68.00;;;;;;5070169;28;20052;-72
2024/02/10 04:30:59;;;;;;;1.52;1.02;;;9.40;68.30;;;;;;5069627;28;20047;-73
2024/02/10 04:33:25;;;;;;;1.55;0.98;;;9.30;68.20;;;;;;5071173;28;20048;-72
2024/02/10 04:35:52;;;;;;;1.60;0.88;;;9.20;67.90;;;;;;5071832;28;20039;-73
2024/02/10 04:38:18;;;;;;;;;;;9.10;67.50;;;;;;5070485;28;20112;-72
2024/02/10 04:40:45;;;;;;;1.08;0.93;;;9.00;68.00;;;;;;5069303;28;20292;-73
2024/02/10 04:43:12;;;;;;;0.70;0.40;;;9.00;68.40;;;;;;5071679;28;20035;-73
2024/02/10 04:45:38;;;;;;;1.38;1.08;;;9.00;68.60;;;;;;5069930;28;20021;-72
2024/02/10 04:48:12;;;;;;;1.45;1.08;;;9.00;68.50;;;;;;5071582;28;20045;-72
2024/02/10 04:50:39;;;;;;;0.30;0.30;;;8.90;68.30;;;;;;5053395;28;20496;-73
2024/02/10 04:53:06;;;;;;;0.50;0.50;;;8.90;68.50;;;;;;5069826;28;20041;-73
2024/02/10 04:55:33;;;;;;;0.52;0.32;;;8.90;70.30;;;;;;5069858;28;20489;-73
2024/02/10 04:58:02;;;;;;;1.67;0.82;;;8.90;68.80;;;;;;5069221;28;20044;-73
2024/02/10 05:00:28;;;;;;;0.38;0.25;;;8.80;68.20;;;;;;5052362;28;20081;-72
2024/02/10 05:02:54;;;;;;;0.90;0.40;;;8.80;68.10;;;;;;5069552;28;20060;-73
2024/02/10 05:05:21;;;;;;;1.20;1.00;;;8.80;68.90;;;;;;5069789;28;20078;-72
2024/02/10 05:08:06;;;;;;;;;;;8.80;69.10;;;;;;5053384;28;20044;-72
2024/02/10 05:10:32;;;;;;;0.70;0.60;;;8.80;69.90;;;;;;5072828;28;19952;-73
2024/02/10 05:12:58;;;;;;;0.65;0.55;;;8.70;69.70;;;;;;5075195;28;20505;-73
2024/02/10 05:15:25;;;;;;;0.45;0.40;;;8.60;69.60;;;;;;5075029;28;20046;-72
2024/02/10 05:17:53;;;;;;;0.98;0.60;;;8.60;69.50;;;;;;5057245;28;20580;-73
2024/02/10 05:20:22;;;;;;;0.47;0.35;;;8.60;69.40;;;;;;5073151;28;20435;-72
2024/02/10 05:23:09;;;;;;;1.70;1.10;;;8.60;69.20;;;;;;5073492;28;20116;-73
2024/02/10 05:25:35;;;;;;;;;;;8.60;69.30;;;;;;5075339;28;20021;-72
2024/02/10 05:28:02;;;;;;;0.38;0.38;;;8.60;69.00;;;;;;5075957;28;19920;-73
2024/02/10 05:30:28;;;;;;;;;;;8.60;69.10;;;;;;5074298;28;20036;-72
2024/02/10 05:33:04;;;;;;;0.77;0.70;;;8.60;68.70;;;;;;5072713;28;19921;-72
2024/02/10 05:35:31;;;;;;;3.38;1.45;;;8.50;68.90;;;;;;5073534;28;20385;-73
2024/02/10 05:38:02;;;;;;;1.15;0.95;;;8.60;68.90;;;;;;5073082;28;20392;-72
2024/02/10 05:40:30;;;;;;;0.73;0.50;;;8.60;69.00;;;;;;5072627;28;20043;-73
2024/02/10 05:43:04;;;;;;;2.95;1.27;;;8.60;68.60;;;;;;5073230;28;20059;-73
2024/02/10 05:45:33;;;;;;;6.15;2.03;;;8.60;69.30;;;;;;5074391;28;20489;-72
2024/02/10 05:47:59;;;;;;;3.20;0.63;;;8.60;69.40;;;;;;5073190;28;20427;-72
2024/02/10 05:50:25;;;;;;;2.47;0.82;;;8.70;69.60;;;;;;5072455;28;20098;-73
2024/02/10 05:52:53;;;;;;;2.53;1.17;;;8.70;69.60;;;;;;5072813;28;20086;-73
2024/02/10 05:55:25;;;;;;;1.05;0.95;;;8.60;69.40;;;;;;5056152;28;20066;-73
2024/02/10 05:58:10;;;;;;;1.63;1.17;;;8.60;69.60;;;;;;5072562;28;20042;-73
2024/02/10 06:00:40;;;;;;;1.48;0.65;;;8.50;70.30;;;;;;5073359;28;20040;-73
2024/02/10 06:03:06;;;;;;;1.35;0.70;;;8.50;70.00;;;;;;5056547;28;20447;-73
2024/02/10 06:05:32;;;;;;;1.33;0.45;;;8.50;70.00;;;;;;5073838;28;20081;-73
2024/02/10 06:08:00;;;;;;;0.82;0.40;;;8.50;70.30;;;;;;5072605;28;20067;-72
2024/02/10 06:10:26;;;;;;;0.95;0.70;;;8.60;70.50;;;;;;5073417;28;20047;-73
2024/02/10 06:12:53;;;;;;;0.20;0.20;;;8.50;70.60;;;;;;5072513;28;20401;-73
2024/02/10 06:15:20;;;;;;;1.10;0.90;;;8.50;70.50;;;;;;5073745;28;20036;-72
2024/02/10 06:17:52;;;;;;;1.63;0.57;;;8.50;70.40;;;;;;5055697;28;20064;-72
2024/02/10 06:20:22;;;;;;;1.10;1.05;;;8.50;70.90;;;;;;5054507;28;20037;-73
2024/02/10 06:22:50;;;;;;;1.23;1.02;;;8.50;70.80;;;;;;5073698;28;20037;-73
2024/02/10 06:25:27;;;;;;;5.85;1.65;;;8.50;70.60;;;;;;5072474;28;20025;-72
2024/02/10 06:28:11;;;;;;;2.45;1.58;;;8.50;70.30;;;;;;5073622;28;20060;-73
2024/02/10 06:30:37;;;;;;;2.80;1.15;;;8.50;70.30;;;;;;5073143;28;20037;-73
2024/02/10 06:33:05;;;;;;;2.10;0.90;;;8.50;70.20;;;;;;5072287;28;20040;-72
2024/02/10 06:35:31;;;;;;;1.38;0.95;;;8.50;69.50;;;;;;5072087;28;20033;-73
2024/02/10 06:37:57;;;;;;;5.55;1.77;;;8.50;70.00;;;;;;5073635;28;20045;-73
2024/02/10 06:40:23;;;;;;;10.85;2.40;;;8.60;70.00;;;;;;5071602;28;20056;-72
2024/02/10 06:42:51;;;;;;;;;;;8.50;70.00;;;;;;5074071;28;20043;-73
2024/02/10 06:45:21;;;;;;;;;;;8.60;69.90;;;;;;5072562;28;19912;-72
2024/02/10 06:47:49;;;;;;;6.57;2.88;;;8.50;69.50;;;;;;5072920;28;19998;-73
2024/02/10 06:50:23;;;;;;;2.83;1.95;;;8.50;69.90;;;;;;5054842;28;20029;-73
2024/02/10 06:52:50;;;;;;;2.00;1.42;;;8.50;69.30;;;;;;5071962;28;20112;-73
2024/02/10 06:55:19;;;;;;;3.25;1.75;;;8.50;69.80;;;;;;5071914;28;20495;-73
2024/02/10 06:57:48;;;;;;;2.92;1.65;;;8.60;69.70;;;;;;5071495;28;20131;-73
2024/02/10 07:00:15;;;;;;;2.75;1.60;;;8.60;68.90;;;;;;5071363;28;20029;-73
2024/02/10 07:02:44;;;;;;;6.22;2.35;;;8.70;69.20;;;;;;5054820;28;20405;-73
2024/02/10 07:05:12;;;;;;;5.07;2.22;;;8.70;69.10;;;;;;5071773;28;20072;-72
2024/02/10 07:07:41;;;;;;;3.20;2.35;;;8.70;69.20;;;;;;5072892;28;20033;-72
2024/02/10 07:10:28;;;;;;;1.58;0.85;;;8.80;69.00;;;;;;5071151;28;20052;-73
2024/02/10 07:12:54;;;;;;;2.00;1.40;;;8.80;68.90;;;;;;5071586;28;20040;-73
2024/02/10 07:15:23;;;;;;;5.90;3.13;;;8.80;69.10;;;;;;5071419;28;20028;-73
2024/02/10 07:17:52;;;;;;;3.38;2.20;;;8.80;69.20;;;;;;5071225;28;20047;-73
2024/02/10 07:20:37;;;;;;;2.78;1.73;;;8.90;69.10;;;;;;5070617;28;20029;-73
2024/02/10 07:23:03;;;;;;;3.28;2.05;;;9.00;68.90;;;;;;5079095;28;20392;-73
2024/02/10 07:25:32;;;;;;;2.00;1.25;;;9.00;67.90;;;;;;5069919;28;20036;-72
2024/02/10 07:30:46;;;;;;;3.78;2.22;;;9.20;68.30;;;;;;5085081;28;20064;-73
2024/02/10 07:33:13;;;;;;;9.57;3.33;;;9.30;68.50;;;;;;5071612;28;20044;-73
2024/02/10 07:35:40;;;;;;;9.98;3.95;;;9.40;68.60;;;;;;5070835;28;20028;-73
2024/02/10 07:38:06;;;;;;;4.05;2.38;;;9.50;68.10;;;;;;5071075;28;20044;-72
2024/02/10 07:40:32;;;;;;;8.18;3.63;;;9.60;68.50;;;;;;5060760;28;20036;-73
2024/02/10 07:42:58;;;;;;;6.35;3.03;;;9.70;68.20;;;;;;5053811;28;20041;-73
2024/02/10 07:45:24;;;;;;;6.65;3.60;;;9.80;67.90;;;;;;5071143;28;20036;-73
2024/02/10 07:47:50;;;;;;;6.45;3.40;;;10.00;67.70;;;;;;5054476;28;20516;-73
2024/02/10 07:50:17;;;;;;;3.28;2.03;;;10.10;68.00;;;;;;5070074;28;20040;-73
2024/02/10 07:52:45;;;;;;;;;;;10.20;67.30;;;;;;5074359;28;20396;-73
2024/02/10 07:55:12;;;;;;;3.78;1.92;;;10.40;67.90;;;;;;5090855;28;19961;-72
2024/02/10 07:57:39;;;;;;;4.75;2.50;;;10.50;67.30;;;;;;5070800;28;20032;-73
2024/02/10 08:00:09;;;;;;;4.93;2.85;;;10.70;67.00;;;;;;5070055;28;20431;-73
2024/02/10 08:02:36;;;;;;;3.17;1.92;;;10.80;66.90;;;;;;5070223;28;20118;-73
2024/02/10 08:05:04;;;;;;;1.45;1.08;;;11.00;66.70;;;;;;5086851;28;20058;-73
2024/02/10 08:07:31;;;;;;;2.17;1.42;;;11.10;66.90;;;;;;5070363;28;20067;-73
2024/02/10 08:09:58;;;;;;;2.28;1.38;;;11.30;66.90;;;;;;5053396;28;20111;-73
2024/02/10 08:12:25;;;;;;;1.45;0.75;;;11.40;66.20;;;;;;5069399;28;20423;-73
2024/02/10 08:14:53;;;;;;;1.05;0.73;;;11.60;66.30;;;;;;5071424;28;20036;-73
2024/02/10 08:17:22;;;;;;;1.50;1.40;;;11.70;66.20;;;;;;5082942;28;20044;-73
2024/02/10 08:22:36;;;;;;;1.40;0.68;;;11.80;65.70;;;;;;5090214;28;20059;-73
2024/02/10 08:25:04;;;;;;;1.60;1.17;;;12.00;65.60;;;;;;5091554;28;20149;-73
2024/02/10 08:27:31;;;;;;;0.38;0.32;;;12.10;64.80;;;;;;5090253;28;20059;-73
2024/02/10 08:29:58;;;;;;;0.88;0.52;;;12.20;65.10;;;;;;5088088;28;20035;-72
2024/02/10 08:32:26;;;;;;;0.45;0.25;;;12.30;64.60;;;;;;5088951;28;20040;-73
2024/02/10 08:34:53;;;;;;;1.30;0.82;;;12.40;64.60;;;;;;5073057;28;20065;-73
2024/02/10 08:37:20;;;;;;;0.90;0.40;;;12.50;63.80;;;;;;5090050;28;20503;-72
2024/02/10 08:39:46;;;;;;;0.63;0.20;;;12.70;64.20;;;;;;5089713;28;20028;-72
2024/02/10 08:42:13;;;;;;;;;;;12.80;63.50;;;;;;5072940;28;20129;-73
2024/02/10 08:44:40;;;;;;;0.30;0.20;;;12.80;63.80;;;;;;5089817;28;19916;-73
2024/02/10 08:47:07;;;;;;;0.52;0.47;;;12.90;63.20;;;;;;5089700;28;20044;-73
2024/02/10 08:52:19;;;;;;;0.63;0.30;;;13.00;62.20;;;;;;5089568;28;20496;-73
2024/02/10 08:54:46;;;;;;;0.50;0.28;;;13.10;62.30;;;;;;5091229;28;20039;-73
2024/02/10 08:57:15;;;;;;;0.30;0.30;;;13.20;61.70;;;;;;5091056;28;20537;-73
2024/02/10 08:59:45;;;;;;;1.40;0.30;;;13.40;61.10;;;;;;5089864;28;20036;-72
2024/02/10 09:02:12;;;;;;;0.68;0.28;;;13.60;60.40;;;;;;5089050;28;20064;-73
2024/02/10 09:04:39;;;;;;;1.13;1.02;;;13.90;60.10;;;;;;5090016;28;20044;-73
2024/02/10 09:07:06;;;;;;;0.40;0.35;;;14.30;58.60;;;;;;5091373;28;20035;-73
2024/02/10 09:09:33;;;;;;;1.17;0.70;;;14.60;57.10;;;;;;5089577;28;20064;-73
2024/02/10 09:11:59;;;;;;;0.40;0.30;;;14.60;56.20;;;;;;5089030;28;20032;-73
2024/02/10 09:14:26;;;;;;;0.25;0.25;;;14.70;56.70;;;;;;5091087;28;20389;-73
2024/02/10 09:16:52;;;;;;;;;;;14.70;56.40;;;;;;5082064;28;20476;-73
2024/02/10 09:19:19;;;;;;;0.13;0.13;;;14.60;54.70;;;;;;5069463;28;19917;-73
2024/02/10 09:24:33;;;;;;;0.25;0.25;;;14.60;55.20;;;;;;5089630;28;20028;-73
2024/02/10 09:26:59;;;;;;;0.70;0.35;;;14.70;55.50;;;;;;5072571;28;20492;-72
2024/02/10 09:29:26;;;;;;;1.90;0.98;;;14.80;54.70;;;;;;5091105;28;20055;-73
2024/02/10 09:31:59;;;;;;;2.63;1.10;;;14.80;54.70;;;;;;5105752;28;20040;-73
2024/02/10 09:34:27;;;;;;;1.35;0.82;;;14.90;54.10;;;;;;5089585;28;20086;-73
2024/02/10 09:36:54;;;;;;;0.90;0.63;;;15.00;53.20;;;;;;5089505;28;20039;-73
2024/02/10 09:39:20;;;;;;;0.65;0.57;;;15.20;53.80;;;;;;5072307;28;20036;-73
2024/02/10 09:41:47;;;;;;;4.88;2.22;;;15.30;52.70;;;;;;5090089;28;20047;-73
2024/02/10 09:47:01;;;;;;;1.08;0.50;;;15.50;52.60;;;;;;5090707;28;20088;-73
2024/02/10 09:49:28;;;;;;;0.40;0.40;;;15.60;51.50;;;;;;5090757;28;20032;-73
2024/02/10 09:51:54;;;;;;;3.17;1.75;;;15.70;50.20;;;;;;5090010;28;20093;-73
2024/02/10 09:54:20;;;;;;;0.80;0.52;;;15.80;50.30;;;;;;5089899;28;20038;-72
2024/02/10 09:56:46;;;;;;;0.43;0.22;;;16.00;49.00;;;;;;5072680;28;20482;-72
2024/02/10 09:59:22;;;;;;;0.55;0.55;;;16.20;49.50;;;;;;5073896;28;20544;-72
2024/02/10 10:01:50;;;;;;;0.30;0.30;;;16.50;48.40;;;;;;5072093;28;20036;-73
2024/02/10 10:04:19;;;;;;;0.85;0.50;;;16.80;45.80;;;;;;5074398;28;20496;-73
2024/02/10 10:06:45;;;;;;;1.23;0.70;;;17.10;46.20;;;;;;5072711;28;20115;-73
2024/02/10 10:09:15;;;;;;;1.17;0.80;;;17.60;44.20;;;;;;5073922;28;20035;-73
2024/02/10 10:11:43;;;;;;;1.67;0.75;;;18.00;44.20;;;;;;5073924;28;20048;-73
2024/02/10 10:14:09;;;;;;;1.13;0.98;;;18.10;40.70;;;;;;5092707;28;20028;-72
2024/02/10 10:16:35;;;;;;;0.68;0.52;;;18.10;39.40;;;;;;5075399;28;20086;-72
2024/02/10 10:19:02;;;;;;;1.67;0.75;;;18.10;39.20;;;;;;5075517;28;20504;-72
2024/02/10 10:21:30;;;;;;;0.55;0.32;;;18.30;39.30;;;;;;5092097;28;20618;-73
2024/02/10 10:23:57;;;;;;;0.90;0.60;;;18.60;37.70;;;;;;5075589;28;20032;-73
2024/02/10 10:26:24;;;;;;;0.57;0.57;;;18.80;36.70;;;;;;5092541;28;20032;-73
2024/02/10 10:28:50;;;;;;;1.73;0.57;;;18.90;36.20;;;;;;5087724;28;20064;-73
2024/02/10 10:31:17;;;;;;;;;;;18.90;36.90;;;;;;5073409;28;20102;-73
2024/02/10 10:34:04;;;;;;;1.10;0.80;;;18.90;36.10;;;;;;5072139;28;19998;-73
2024/02/10 10:36:31;;;;;;;0.30;0.30;;;18.80;35.50;;;;;;5073591;28;20036;-72
2024/02/10 10:39:02;;;;;;;0.95;0.65;;;18.80;36.20;;;;;;5073226;28;20547;-73
2024/02/10 10:41:28;;;;;;;0.52;0.43;;;19.00;35.70;;;;;;5072832;28;20508;-73
2024/02/10 10:43:58;;;;;;;2.17;0.95;;;19.40;36.10;;;;;;5055217;28;20060;-73
2024/02/10 10:46:24;;;;;;;3.53;0.93;;;19.70;35.10;;;;;;5071798;28;20052;-73
2024/02/10 10:48:50;;;;;;;0.65;0.65;;;20.00;34.00;;;;;;5071948;28;20504;-73
2024/02/10 10:51:37;;;;;;;1.70;0.75;;;20.40;33.90;;;;;;5071831;28;20041;-73
2024/02/10 10:54:06;;;;;;;1.38;0.55;;;20.10;34.40;;;;;;5091194;28;20093;-72
2024/02/10 10:56:34;;;;;;;0.88;0.52;;;20.00;34.00;;;;;;5075172;28;20040;-73
2024/02/10 10:59:05;;;;;;;1.50;0.65;;;20.30;34.60;;;;;;5092945;28;20039;-73
2024/02/10 11:01:32;;;;;;;1.85;0.68;;;20.30;34.20;;;;;;5091516;28;20036;-73
2024/02/10 11:04:18;;;;;;;0.82;0.40;;;20.00;33.30;;;;;;5077855;28;20052;-73
2024/02/10 11:06:44;;;;;;;1.80;1.50;;;19.90;34.70;;;;;;5071309;28;20036;-73
2024/02/10 11:09:20;;;;;;;0.80;0.57;;;19.60;33.40;;;;;;5071538;28;20082;-73
2024/02/10 11:11:47;;;;;;;0.20;0.20;;;19.30;34.00;;;;;;5091922;28;20127;-73
2024/02/10 11:14:13;;;;;;;1.13;0.82;;;19.00;34.90;;;;;;5074932;28;20028;-73
2024/02/10 11:16:43;;;;;;;4.85;3.50;;;19.10;35.70;;;;;;5078391;28;20036;-73
2024/02/10 11:19:12;;;;;;;1.05;0.77;;;19.40;34.30;;;;;;5091590;28;20385;-73
2024/02/10 11:21:40;;;;;;;0.70;0.68;;;19.20;34.80;;;;;;5073673;28;20114;-73
2024/02/10 11:24:11;;;;;;;0.93;0.65;;;19.20;34.80;;;;;;5074750;28;20017;-73
2024/02/10 11:26:55;;;;;;;12.82;1.80;;;19.30;36.00;;;;;;5074666;28;20040;-73
2024/02/10 11:29:22;;;;;;;1.70;0.88;;;19.20;35.80;;;;;;5091142;28;20062;-73
2024/02/10 11:31:48;;;;;;;0.32;0.30;;;19.20;36.00;;;;;;5083102;28;20040;-73
2024/02/10 11:34:16;;;;;;;27.77;1.60;;;19.10;35.70;;;;;;5072005;28;20032;-72
2024/02/10 11:36:50;;;;;;;1.55;1.20;;;19.00;36.50;;;;;;5075095;28;20439;-73
2024/02/10 11:39:18;;;;;;;0.60;0.60;;;18.90;34.80;;;;;;5075203;28;20071;-73
2024/02/10 11:41:46;;;;;;;2.08;0.73;;;18.70;35.70;;;;;;5090275;28;20040;-73
2024/02/10 11:44:15;;;;;;;9.40;0.95;;;18.80;37.10;;;;;;5074636;28;20453;-73
2024/02/10 11:46:41;;;;;;;0.47;0.40;;;18.80;37.00;;;;;;5092329;28;20048;-73
2024/02/10 11:49:10;;;;;;;1.55;1.40;;;18.80;37.10;;;;;;5092411;28;20024;-73
2024/02/10 11:51:36;;;;;;;1.50;0.98;;;18.70;37.20;;;;;;5090391;28;20431;-73
2024/02/10 11:54:03;;;;;;;;;;;18.70;37.50;;;;;;5091370;28;20027;-73
2024/02/10 11:56:33;;;;;;;1.50;0.73;;;18.70;37.80;;;;;;5090850;28;20330;-73
2024/02/10 11:59:01;;;;;;;1.65;1.23;;;18.60;37.80;;;;;;5090561;28;20122;-73
2024/02/10 12:01:46;;;;;;;1.80;0.88;;;18.70;37.60;;;;;;5090129;28;20036;-73
2024/02/10 12:04:18;;;;;;;3.50;1.02;;;18.80;36.10;;;;;;5090859;28;20044;-73
2024/02/10 12:07:06;;;;;;;0.93;0.63;;;18.90;36.90;;;;;;5090570;28;20180;-73
2024/02/10 12:09:32;;;;;;;3.60;1.55;;;19.00;37.20;;;;;;5090594;28;20044;-73
2024/02/10 12:12:00;;;;;;;0.45;0.30;;;19.10;36.50;;;;;;5070847;28;20040;-72
2024/02/10 12:14:45;;;;;;;0.15;0.15;;;18.90;36.40;;;;;;5070349;28;20043;-73
2024/02/10 12:17:16;;;;;;;1.48;0.88;;;18.90;37.10;;;;;;5071598;28;20064;-73
2024/02/10 12:19:43;;;;;;;0.10;0.10;;;18.80;37.10;;;;;;5069769;28;20044;-73
2024/02/10 12:22:09;;;;;;;2.88;1.20;;;18.70;36.80;;;;;;5069537;28;20078;-73
2024/02/10 12:24:55;;;;;;;9.38;2.35;;;18.70;36.30;;;;;;5070597;28;20025;-73
2024/02/10 12:27:25;;;;;;;2.33;1.02;;;18.80;36.80;;;;;;5069775;28;20033;-74
2024/02/10 12:29:51;;;;;;;1.17;0.40;;;18.70;36.70;;;;;;5070425;28;20122;-72
2024/02/10 12:32:17;;;;;;;;;;;18.70;36.10;;;;;;5070111;28;20090;-73
2024/02/10 12:34:43;;;;;;;0.98;0.47;;;18.60;36.70;;;;;;5069894;28;20002;-73
2024/02/10 12:37:10;;;;;;;1.08;0.75;;;18.50;36.60;;;;;;5071184;28;20135;-73
2024/02/10 12:39:37;;;;;;;0.20;0.20;;;18.40;35.40;;;;;;5070163;28;20063;-72
2024/02/10 12:42:03;;;;;;;0.43;0.40;;;18.30;35.20;;;;;;5069237;28;20040;-73
2024/02/10 12:44:31;;;;;;;4.85;1.75;;;18.00;36.00;;;;;;5069721;28;20096;-72
2024/02/10 12:46:57;;;;;;;0.93;0.80;;;17.90;36.60;;;;;;5071087;28;20044;-73
2024/02/10 12:49:25;;;;;;;0.63;0.57;;;17.70;36.60;;;;;;5071096;28;20110;-73
2024/02/10 12:51:54;;;;;;;0.85;0.70;;;17.70;36.90;;;;;;5070453;28;20123;-73
2024/02/10 12:54:20;;;;;;;2.35;0.93;;;17.60;37.40;;;;;;5053403;28;20079;-73
2024/02/10 12:56:46;;;;;;;6.00;2.53;;;17.60;37.50;;;;;;5069697;28;20037;-72
2024/02/10 12:59:14;;;;;;;4.00;1.23;;;17.50;37.60;;;;;;5070824;28;20037;-73
2024/02/10 13:01:41;;;;;;;1.23;0.82;;;17.40;38.20;;;;;;5068738;28;20036;-73
2024/02/10 13:04:07;;;;;;;;;;;17.40;37.40;;;;;;5070436;28;20063;-73
2024/02/10 13:06:33;;;;;;;2.50;1.65;;;17.40;38.00;;;;;;5094681;28;19920;-73
2024/02/10 13:08:59;;;;;;;0.88;0.73;;;17.30;38.40;;;;;;5069411;28;20040;-73
2024/02/10 13:11:25;;;;;;;1.35;1.05;;;17.20;38.50;;;;;;5085544;28;20109;-73
2024/02/10 13:13:52;;;;;;;0.30;0.30;;;17.20;38.80;;;;;;5089808;28;20032;-73
2024/02/10 13:16:19;;;;;;;0.60;0.40;;;17.20;39.40;;;;;;5091053;28;20389;-73
2024/02/10 13:18:45;;;;;;;0.32;0.30;;;17.10;39.50;;;;;;5087432;28;20037;-73
2024/02/10 13:21:15;;;;;;;1.90;0.95;;;17.10;39.50;;;;;;5070438;28;20040;-73
2024/02/10 13:23:43;;;;;;;0.43;0.25;;;17.10;39.60;;;;;;5069519;28;20048;-73